createdAt,value
2018-12-16T00:01:24.307Z,55.73
2018-12-16T00:03:54.242Z,51.90
2018-12-16T00:06:24.398Z,49.33
2018-12-16T00:08:54.322Z,46.37
2018-12-16T00:11:24.282Z,44.93
2018-12-16T00:13:54.194Z,46.37
2018-12-16T00:16:24.160Z,45.67
2018-12-16T00:18:54.016Z,45.00
2018-12-16T00:21:23.797Z,47.77
2018-12-16T00:23:53.647Z,45.13
2018-12-16T00:26:23.732Z,48.23
2018-12-16T00:28:53.507Z,45.87
2018-12-16T00:31:23.422Z,47.80
2018-12-16T00:33:53.238Z,47.13
2018-12-16T00:36:23.207Z,48.07
2018-12-16T00:38:53.023Z,46.30
2018-12-16T00:41:22.888Z,46.03
2018-12-16T00:43:52.697Z,43.37
2018-12-16T00:46:22.589Z,45.80
2018-12-16T00:48:52.417Z,45.90
2018-12-16T00:51:22.547Z,44.10
2018-12-16T00:53:52.397Z,43.60
2018-12-16T00:56:22.372Z,46.43
2018-12-16T00:58:52.182Z,44.90
2018-12-16T01:01:22.333Z,44.53
2018-12-16T01:03:52.252Z,46.67
2018-12-16T01:06:22.318Z,45.83
2018-12-16T01:08:52.117Z,48.07
2018-12-16T01:11:22.047Z,45.20
2018-12-16T01:13:51.867Z,45.73
2018-12-16T01:16:21.957Z,42.80
2018-12-16T01:18:51.967Z,43.40
2018-12-16T01:21:21.737Z,44.70
2018-12-16T01:23:51.712Z,49.57
2018-12-16T01:26:21.487Z,45.70
2018-12-16T01:28:51.267Z,47.10
2018-12-16T01:31:21.341Z,47.43
2018-12-16T01:33:51.249Z,47.67
2018-12-16T01:36:21.022Z,49.73
2018-12-16T01:38:50.922Z,50.10
2018-12-16T01:41:20.842Z,46.30
2018-12-16T01:43:50.802Z,48.07
2018-12-16T01:46:20.647Z,48.87
2018-12-16T01:48:50.428Z,45.27
2018-12-16T01:51:20.253Z,46.73
2018-12-16T01:53:50.202Z,47.00
2018-12-16T01:56:20.127Z,44.87
2018-12-16T01:58:49.892Z,48.07
2018-12-16T02:01:19.754Z,49.23
2018-12-16T02:03:49.662Z,47.50
2018-12-16T02:06:19.507Z,46.90
2018-12-16T02:08:49.462Z,45.73
2018-12-16T02:11:19.223Z,47.97
2018-12-16T02:13:48.982Z,47.47
2018-12-16T02:16:19.052Z,45.43
2018-12-16T02:18:48.899Z,46.57
2018-12-16T02:21:18.792Z,46.03
2018-12-16T02:23:48.674Z,46.33
2018-12-16T02:26:18.542Z,46.60
2018-12-16T02:28:48.312Z,44.43
2018-12-16T02:31:18.309Z,44.20
2018-12-16T02:33:48.131Z,47.20
2018-12-16T02:36:20.982Z,45.03
2018-12-16T02:38:50.717Z,45.23
2018-12-16T02:41:20.572Z,46.53
2018-12-16T02:43:50.462Z,44.87
2018-12-16T02:46:20.267Z,45.17
2018-12-16T02:48:50.122Z,45.40
2018-12-16T02:51:20.092Z,48.80
2018-12-16T02:53:49.998Z,48.13
2018-12-16T02:56:19.748Z,45.77
2018-12-16T02:58:49.562Z,45.80
2018-12-16T03:01:19.473Z,44.63
2018-12-16T03:03:49.172Z,43.67
2018-12-16T03:06:18.967Z,43.13
2018-12-16T03:08:48.826Z,43.60
2018-12-16T03:11:18.713Z,43.47
2018-12-16T03:13:48.548Z,44.57
2018-12-16T03:16:18.368Z,45.40
2018-12-16T03:18:48.252Z,46.30
2018-12-16T03:21:18.083Z,42.70
2018-12-16T03:23:47.953Z,44.30
2018-12-16T03:26:18.148Z,42.80
2018-12-16T03:28:47.972Z,43.93
2018-12-16T03:31:17.736Z,42.47
2018-12-16T03:33:47.453Z,43.17
2018-12-16T03:36:17.202Z,43.33
2018-12-16T03:38:46.983Z,43.50
2018-12-16T03:41:16.887Z,45.03
2018-12-16T03:43:46.988Z,43.83
2018-12-16T03:46:16.923Z,41.83
2018-12-16T03:48:46.709Z,43.53
2018-12-16T03:51:16.547Z,43.13
2018-12-16T03:53:46.222Z,42.83
2018-12-16T03:56:16.308Z,41.20
2018-12-16T03:58:56.682Z,41.80
2018-12-16T04:01:26.512Z,43.63
2018-12-16T04:03:56.242Z,44.90
2018-12-16T04:06:25.987Z,42.03
2018-12-16T04:08:55.727Z,42.33
2018-12-16T04:11:25.502Z,43.70
2018-12-16T04:13:55.262Z,42.03
2018-12-16T04:16:25.103Z,43.13
2018-12-16T04:18:54.890Z,43.50
2018-12-16T04:21:25.023Z,43.03
2018-12-16T04:23:54.933Z,43.40
2018-12-16T04:26:24.725Z,42.80
2018-12-16T04:28:54.497Z,42.13
2018-12-16T04:31:24.528Z,43.27
2018-12-16T04:33:54.259Z,46.23
2018-12-16T04:36:24.082Z,42.17
2018-12-16T04:39:26.087Z,43.33
2018-12-16T04:41:56.115Z,41.73
2018-12-16T04:44:25.878Z,45.07
2018-12-16T04:46:55.701Z,44.37
2018-12-16T04:49:25.491Z,44.90
2018-12-16T04:51:55.312Z,46.37
2018-12-16T04:54:25.114Z,44.83
2018-12-16T04:56:54.978Z,45.97
2018-12-16T04:59:24.782Z,44.60
2018-12-16T05:01:54.847Z,47.00
2018-12-16T05:04:24.628Z,43.40
2018-12-16T05:06:54.487Z,45.53
2018-12-16T05:09:24.250Z,45.53
2018-12-16T05:11:54.120Z,46.13
2018-12-16T05:14:23.937Z,44.50
2018-12-16T05:16:53.788Z,45.03
2018-12-16T05:19:23.542Z,47.27
2018-12-16T05:21:53.322Z,45.97
2018-12-16T05:24:23.082Z,47.23
2018-12-16T05:26:53.127Z,48.80
2018-12-16T05:29:22.938Z,46.60
2018-12-16T05:31:52.889Z,48.10
2018-12-16T05:34:22.678Z,46.00
2018-12-16T05:36:52.468Z,45.17
2018-12-16T05:39:22.282Z,45.23
2018-12-16T05:41:52.071Z,46.43
2018-12-16T05:44:21.842Z,46.20
2018-12-16T05:46:51.707Z,46.23
2018-12-16T05:49:21.422Z,46.07
2018-12-16T05:51:51.202Z,44.87
2018-12-16T05:54:20.926Z,47.53
2018-12-16T05:56:50.837Z,48.73
2018-12-16T05:59:20.631Z,44.97
2018-12-16T06:01:50.562Z,48.60
2018-12-16T06:04:20.278Z,49.50
2018-12-16T06:06:50.062Z,46.97
2018-12-16T06:09:19.942Z,48.83
2018-12-16T06:11:49.918Z,47.30
2018-12-16T06:14:19.897Z,48.57
2018-12-16T06:16:49.647Z,47.93
2018-12-16T06:19:19.450Z,47.23
2018-12-16T06:21:49.227Z,45.93
2018-12-16T06:24:19.150Z,45.10
2018-12-16T06:26:49.157Z,44.30
2018-12-16T06:29:19.411Z,47.57
2018-12-16T06:31:49.267Z,45.27
2018-12-16T06:34:19.557Z,46.60
2018-12-16T06:36:49.312Z,44.47
2018-12-16T06:39:19.107Z,48.10
2018-12-16T06:41:48.952Z,44.47
2018-12-16T06:44:18.787Z,48.53
2018-12-16T06:46:48.725Z,45.57
2018-12-16T06:49:18.608Z,48.43
2018-12-16T06:51:48.477Z,47.77
2018-12-16T06:54:18.247Z,45.10
2018-12-16T06:56:48.082Z,46.63
2018-12-16T06:59:17.882Z,44.67
2018-12-16T07:01:47.721Z,45.57
2018-12-16T07:04:17.582Z,47.07
2018-12-16T07:06:47.506Z,47.10
2018-12-16T07:09:17.272Z,46.23
2018-12-16T07:11:47.387Z,48.33
2018-12-16T07:14:17.185Z,50.03
2018-12-16T07:16:46.992Z,46.73
2018-12-16T07:19:16.831Z,46.27
2018-12-16T07:21:46.787Z,47.50
2018-12-16T07:24:16.571Z,45.73
2018-12-16T07:26:46.371Z,46.57
2018-12-16T07:29:16.052Z,49.50
2018-12-16T07:31:45.767Z,45.43
2018-12-16T07:34:15.472Z,47.47
2018-12-16T07:36:45.585Z,48.53
2018-12-16T07:39:15.377Z,47.00
2018-12-16T07:41:45.226Z,47.33
2018-12-16T07:44:14.992Z,47.20
2018-12-16T07:46:44.871Z,47.50
2018-12-16T07:49:14.791Z,48.93
2018-12-16T07:51:44.941Z,47.70
2018-12-16T07:54:16.236Z,48.77
2018-12-16T07:56:46.346Z,47.77
2018-12-16T07:59:16.161Z,46.10
2018-12-16T08:02:16.234Z,49.60
2018-12-16T08:04:46.031Z,50.07
2018-12-16T08:07:15.896Z,48.87
2018-12-16T08:09:45.693Z,48.77
2018-12-16T08:12:15.686Z,50.73
2018-12-16T08:14:45.697Z,47.80
2018-12-16T08:17:15.652Z,46.33
2018-12-16T08:19:45.927Z,47.90
2018-12-16T08:22:16.004Z,49.80
2018-12-16T08:24:46.062Z,48.13
2018-12-16T08:27:15.997Z,47.13
2018-12-16T08:29:46.097Z,47.23
2018-12-16T08:32:16.252Z,45.63
2018-12-16T08:34:46.147Z,48.83
2018-12-16T08:37:16.142Z,45.63
2018-12-16T08:39:46.045Z,46.33
2018-12-16T08:42:15.867Z,47.93
2018-12-16T08:44:45.627Z,46.67
2018-12-16T08:47:15.927Z,43.63
2018-12-16T08:49:45.812Z,44.90
2018-12-16T08:52:16.123Z,48.50
2018-12-16T08:54:46.120Z,51.83
2018-12-16T08:57:16.187Z,52.90
2018-12-16T08:59:46.082Z,48.60
2018-12-16T09:02:15.907Z,46.90
2018-12-16T09:04:51.887Z,49.33
2018-12-16T09:07:22.034Z,45.03
2018-12-16T09:09:51.893Z,44.27
2018-12-16T09:12:21.739Z,43.40
2018-12-16T09:14:51.882Z,46.37
2018-12-16T09:17:22.053Z,48.70
2018-12-16T09:19:51.829Z,51.87
2018-12-16T09:22:21.843Z,51.57
2018-12-16T09:24:51.752Z,58.83
2018-12-16T09:27:21.818Z,53.70
2018-12-16T09:29:51.613Z,54.83
2018-12-16T09:32:21.623Z,55.20
2018-12-16T09:34:51.447Z,59.83
2018-12-16T09:37:21.309Z,57.90
2018-12-16T09:39:51.173Z,53.73
2018-12-16T09:42:21.132Z,59.87
2018-12-16T09:44:51.142Z,61.07
2018-12-16T09:47:21.337Z,58.23
2018-12-16T09:49:51.142Z,59.20
2018-12-16T09:52:21.217Z,58.43
2018-12-16T09:54:51.447Z,53.37
2018-12-16T09:57:21.383Z,61.47
2018-12-16T09:59:51.198Z,60.57
2018-12-16T10:02:21.048Z,59.83
2018-12-16T10:04:51.337Z,61.37
2018-12-16T10:07:21.209Z,64.17
2018-12-16T10:09:51.117Z,66.90
2018-12-16T10:12:21.067Z,67.03
2018-12-16T10:14:50.998Z,65.73
2018-12-16T10:17:21.172Z,69.00
2018-12-16T10:19:51.028Z,67.37
2018-12-16T10:22:20.832Z,62.70
2018-12-16T10:24:51.433Z,62.77
2018-12-16T10:27:21.738Z,62.50
2018-12-16T10:29:51.801Z,69.00
2018-12-16T10:32:21.744Z,65.17
2018-12-16T10:34:51.492Z,62.23
2018-12-16T10:37:21.462Z,55.97
2018-12-16T10:39:51.167Z,54.63
2018-12-16T10:42:21.102Z,55.53
2018-12-16T10:44:50.852Z,53.27
2018-12-16T10:47:20.662Z,53.73
2018-12-16T10:49:50.813Z,53.07
2018-12-16T10:52:20.802Z,49.67
2018-12-16T10:54:50.512Z,47.93
2018-12-16T10:57:20.592Z,48.53
2018-12-16T10:59:50.317Z,49.40
2018-12-16T11:02:20.093Z,47.27
2018-12-16T11:04:50.123Z,47.27
2018-12-16T11:07:20.630Z,45.10
2018-12-16T11:09:51.643Z,45.30
2018-12-16T11:12:21.763Z,41.80
2018-12-16T11:14:51.527Z,42.50
2018-12-16T11:17:21.318Z,42.70
2018-12-16T11:19:51.172Z,44.50
2018-12-16T11:22:20.923Z,40.37
2018-12-16T11:24:50.840Z,38.90
2018-12-16T11:27:20.833Z,27.33
2018-12-16T11:29:50.673Z,32.97
2018-12-16T11:32:20.458Z,32.60
2018-12-16T11:34:50.230Z,37.10
2018-12-16T11:37:20.008Z,36.20
2018-12-16T11:39:49.702Z,34.93
2018-12-16T11:42:19.559Z,36.00
2018-12-16T11:44:49.387Z,37.77
2018-12-16T11:47:19.213Z,34.30
2018-12-16T11:49:48.998Z,34.30
2018-12-16T11:52:18.784Z,31.23
2018-12-16T11:54:48.543Z,30.90
2018-12-16T11:57:18.628Z,32.60
2018-12-16T11:59:48.493Z,30.90
2018-12-16T12:02:18.323Z,31.97
2018-12-16T12:04:48.069Z,32.13
2018-12-16T12:07:17.860Z,33.47
2018-12-16T12:09:47.643Z,31.67
2018-12-16T12:12:17.454Z,31.37
2018-12-16T12:14:47.478Z,31.10
2018-12-16T12:17:17.462Z,35.60
2018-12-16T12:19:47.343Z,32.57
2018-12-16T12:22:17.608Z,31.90
2018-12-16T12:24:47.549Z,32.23
2018-12-16T12:27:17.554Z,29.87
2018-12-16T12:29:47.588Z,30.23
2018-12-16T12:32:17.603Z,35.37
2018-12-16T12:34:47.804Z,30.30
2018-12-16T12:37:18.765Z,30.93
2018-12-16T12:39:48.579Z,28.10
2018-12-16T12:42:18.699Z,29.10
2018-12-16T12:44:48.909Z,29.23
2018-12-16T12:47:19.008Z,31.90
2018-12-16T12:49:49.014Z,30.93
2018-12-16T12:52:18.965Z,32.47
2018-12-16T12:54:48.913Z,30.73
2018-12-16T12:57:18.905Z,31.97
2018-12-16T12:59:49.160Z,31.43
2018-12-16T13:02:19.149Z,33.30
2018-12-16T13:04:49.114Z,34.43
2018-12-16T13:07:19.183Z,35.00
2018-12-16T13:09:49.198Z,34.07
2018-12-16T13:12:19.894Z,33.90
2018-12-16T13:14:49.790Z,33.20
2018-12-16T13:17:19.879Z,33.70
2018-12-16T13:19:49.810Z,36.07
2018-12-16T13:22:19.721Z,34.03
2018-12-16T13:25:00.174Z,33.40
2018-12-16T13:27:30.183Z,35.17
2018-12-16T13:30:00.054Z,36.10
2018-12-16T13:32:29.999Z,36.67
2018-12-16T13:34:59.859Z,36.10
2018-12-16T13:37:29.757Z,37.23
2018-12-16T13:39:59.599Z,37.10
2018-12-16T13:42:29.429Z,38.17
2018-12-16T13:44:59.394Z,39.27
2018-12-16T13:47:29.675Z,38.77
2018-12-16T13:49:59.699Z,40.57
2018-12-16T13:52:29.588Z,38.53
2018-12-16T13:54:59.599Z,36.13
2018-12-16T13:57:30.424Z,35.97
2018-12-16T14:00:00.239Z,37.73
2018-12-16T14:02:30.279Z,38.70
2018-12-16T14:05:00.139Z,36.70
2018-12-16T14:07:30.009Z,38.40
2018-12-16T14:09:59.919Z,40.00
2018-12-16T14:12:30.019Z,37.33
2018-12-16T14:15:03.001Z,37.27
2018-12-16T14:17:35.086Z,37.93
2018-12-16T14:20:05.559Z,35.37
2018-12-16T14:22:35.384Z,35.90
2018-12-16T14:25:05.914Z,39.73
2018-12-16T14:27:35.864Z,39.10
2018-12-16T14:30:07.779Z,39.70
2018-12-16T14:32:37.769Z,39.43
2018-12-16T14:35:08.806Z,38.10
2018-12-16T14:37:38.708Z,43.40
2018-12-16T14:40:10.410Z,43.53
2018-12-16T14:42:40.609Z,40.20
2018-12-16T14:45:11.348Z,41.93
2018-12-16T14:47:41.210Z,45.23
2018-12-16T14:50:12.074Z,45.07
2018-12-16T14:52:41.968Z,46.80
2018-12-16T14:55:11.924Z,46.73
2018-12-16T14:57:42.263Z,50.10
2018-12-16T15:00:13.326Z,47.67
2018-12-16T15:02:43.354Z,50.63
2018-12-16T15:05:13.609Z,49.33
2018-12-16T15:07:43.473Z,51.47
2018-12-16T15:10:17.174Z,51.90
2018-12-16T15:12:47.280Z,48.93
2018-12-16T15:15:20.380Z,45.77
2018-12-16T15:17:53.524Z,48.00
2018-12-16T15:20:23.554Z,50.60
2018-12-16T15:22:53.768Z,55.70
2018-12-16T15:25:23.888Z,56.23
2018-12-16T15:27:53.914Z,51.17
2018-12-16T15:30:24.854Z,47.77
2018-12-16T15:32:54.970Z,50.50
2018-12-16T15:35:25.329Z,48.97
2018-12-16T15:37:55.484Z,51.60
2018-12-16T15:40:25.418Z,53.73
2018-12-16T15:42:56.588Z,37.73
2018-12-16T15:45:26.661Z,38.67
2018-12-16T15:47:56.848Z,39.83
2018-12-16T15:50:26.834Z,35.40
2018-12-16T15:52:59.858Z,35.63
2018-12-16T15:55:31.694Z,33.47
2018-12-16T15:58:02.229Z,29.23
2018-12-16T16:00:33.508Z,30.03
2018-12-16T16:03:03.745Z,29.70
2018-12-16T16:05:35.603Z,30.83
2018-12-16T16:08:06.059Z,31.13
2018-12-16T16:10:37.108Z,31.97
2018-12-16T16:13:11.289Z,33.47
2018-12-16T16:15:41.633Z,35.63
2018-12-16T16:18:14.399Z,33.43
2018-12-16T16:20:44.733Z,33.97
2018-12-16T16:23:18.408Z,35.93
2018-12-16T16:25:48.264Z,34.47
2018-12-16T16:28:19.263Z,34.30
2018-12-16T16:30:52.108Z,34.37
2018-12-16T16:33:22.513Z,34.83
2018-12-16T16:35:52.589Z,33.03
2018-12-16T16:38:22.946Z,37.00
2018-12-16T16:40:54.188Z,34.17
2018-12-16T16:43:29.734Z,30.67
2018-12-16T16:46:02.243Z,29.67
2018-12-16T16:48:34.279Z,36.33
2018-12-16T16:51:08.014Z,33.40
2018-12-16T16:53:56.915Z,30.67
2018-12-16T16:56:55.969Z,28.83
2018-12-16T17:05:46.259Z,30.80
2018-12-16T17:08:46.431Z,30.80
2018-12-16T17:11:28.098Z,32.03
2018-12-16T17:13:58.590Z,35.17
2018-12-16T17:16:28.894Z,32.37
2018-12-16T17:19:00.624Z,33.23
2018-12-16T17:21:31.039Z,28.77
2018-12-16T17:24:01.264Z,30.87
2018-12-16T17:26:31.230Z,29.20
2018-12-16T17:29:01.348Z,37.60
2018-12-16T17:31:34.421Z,41.80
2018-12-16T17:34:05.149Z,32.87
2018-12-16T17:36:35.099Z,32.17
2018-12-16T17:39:07.629Z,28.03
2018-12-16T17:41:37.588Z,28.87
2018-12-16T17:44:07.609Z,32.50
2018-12-16T17:46:37.669Z,36.93
2018-12-16T17:49:07.694Z,32.23
2018-12-16T17:51:37.693Z,31.00
2018-12-16T17:54:07.644Z,36.97
2018-12-16T17:56:37.554Z,34.37
2018-12-16T17:59:07.607Z,34.47
2018-12-16T18:01:37.417Z,33.70
2018-12-16T18:04:10.533Z,30.97
2018-12-16T18:06:40.673Z,32.73
2018-12-16T18:09:10.663Z,40.77
2018-12-16T18:11:40.763Z,47.73
2018-12-16T18:14:10.809Z,40.43
2018-12-16T18:16:40.828Z,36.80
2018-12-16T18:19:10.790Z,36.33
2018-12-16T18:21:40.784Z,36.93
2018-12-16T18:24:10.664Z,39.13
2018-12-16T18:26:44.099Z,39.63
2018-12-16T18:29:12.424Z,39.43
2018-12-16T18:31:42.356Z,36.53
2018-12-16T18:34:12.339Z,38.67
2018-12-16T18:36:42.333Z,35.27
2018-12-16T18:39:12.235Z,32.73
2018-12-16T18:41:42.326Z,33.23
2018-12-16T18:44:12.264Z,33.03
2018-12-16T18:46:42.154Z,33.20
2018-12-16T18:49:12.109Z,33.60
2018-12-16T18:51:42.069Z,37.50
2018-12-16T18:54:11.973Z,35.97
2018-12-16T18:56:41.948Z,36.63
2018-12-16T18:59:11.791Z,37.27
2018-12-16T19:01:41.759Z,40.57
2018-12-16T19:04:11.800Z,37.90
2018-12-16T19:06:41.698Z,36.03
2018-12-16T19:09:13.838Z,33.13
2018-12-16T19:11:43.861Z,35.60
2018-12-16T19:14:13.788Z,37.33
2018-12-16T19:16:43.819Z,36.37
2018-12-16T19:19:13.968Z,31.97
2018-12-16T19:21:43.884Z,32.73
2018-12-16T19:24:14.046Z,32.63
2018-12-16T19:26:47.229Z,33.03
2018-12-16T19:29:19.319Z,36.80
2018-12-16T19:31:49.594Z,36.40
2018-12-16T19:34:19.494Z,34.47
2018-12-16T19:36:49.793Z,34.00
2018-12-16T19:39:19.724Z,34.93
2018-12-16T19:41:53.013Z,36.17
2018-12-16T19:44:24.582Z,39.00
2018-12-16T19:46:54.623Z,42.87
2018-12-16T19:49:24.553Z,42.60
2018-12-16T19:51:54.369Z,41.77
2018-12-16T19:54:24.584Z,39.83
2018-12-16T19:56:54.516Z,40.77
2018-12-16T19:59:24.475Z,42.60
2018-12-16T20:01:54.583Z,59.20
2018-12-16T20:04:26.658Z,51.17
2018-12-16T20:06:56.542Z,65.50
2018-12-16T20:09:26.378Z,55.67
2018-12-16T20:11:56.373Z,48.57
2018-12-16T20:14:26.353Z,53.50
2018-12-16T20:16:56.234Z,62.63
2018-12-16T20:19:26.224Z,62.63
2018-12-16T20:21:56.143Z,51.27
2018-12-16T20:24:26.223Z,46.73
2018-12-16T20:26:56.448Z,48.87
2018-12-16T20:29:26.623Z,49.03
2018-12-16T20:31:58.178Z,46.13
2018-12-16T20:34:28.390Z,46.77
2018-12-16T20:36:58.328Z,45.90
2018-12-16T20:39:28.222Z,46.77
2018-12-16T20:41:58.424Z,45.33
2018-12-16T20:44:29.585Z,43.57
2018-12-16T20:47:00.138Z,45.47
2018-12-16T20:49:30.395Z,44.87
2018-12-16T20:52:00.406Z,42.53
2018-12-16T20:54:30.424Z,44.97
2018-12-16T20:57:00.553Z,43.30
2018-12-16T20:59:31.033Z,43.50
2018-12-16T21:02:01.153Z,43.57
2018-12-16T21:04:32.288Z,43.60
2018-12-16T21:07:02.300Z,43.27
2018-12-16T21:09:32.303Z,45.73
2018-12-16T21:12:04.795Z,45.87
2018-12-16T21:14:39.591Z,45.03
2018-12-16T21:19:18.616Z,46.73
2018-12-16T21:21:48.645Z,44.47
2018-12-16T21:24:18.764Z,48.60
2018-12-16T21:26:48.853Z,51.53
2018-12-16T21:29:18.865Z,56.03
2018-12-16T21:31:48.824Z,51.57
2018-12-16T21:34:18.862Z,49.13
2018-12-16T21:36:48.998Z,48.83
2018-12-16T21:39:19.073Z,55.07
2018-12-16T21:41:48.953Z,52.97
2018-12-16T21:44:19.073Z,56.80
2018-12-16T21:46:49.397Z,56.40
2018-12-16T21:49:19.638Z,50.63
2018-12-16T21:51:49.843Z,49.87
2018-12-16T21:54:20.544Z,52.17
2018-12-16T21:56:50.468Z,50.57
2018-12-16T21:59:20.464Z,48.67
2018-12-16T22:01:50.853Z,49.03
2018-12-16T22:04:20.883Z,49.87
2018-12-16T22:06:50.737Z,52.87
2018-12-16T22:09:23.604Z,52.77
2018-12-16T22:11:53.938Z,51.27
2018-12-16T22:14:23.897Z,51.23
2018-12-16T22:16:53.763Z,51.33
2018-12-16T22:19:23.553Z,51.87
2018-12-16T22:21:53.379Z,53.50
2018-12-16T22:24:23.322Z,53.67
2018-12-16T22:26:53.238Z,55.23
2018-12-16T22:29:23.213Z,57.97
2018-12-16T22:31:53.073Z,65.77
2018-12-16T22:34:22.968Z,75.13
2018-12-16T22:36:52.725Z,63.03
2018-12-16T22:39:22.672Z,57.17
2018-12-16T22:41:52.827Z,59.83
2018-12-16T22:44:22.702Z,57.33
2018-12-16T22:46:52.588Z,63.87
2018-12-16T22:49:22.638Z,65.90
2018-12-16T22:51:52.443Z,59.57
2018-12-16T22:54:22.223Z,55.40
2018-12-16T22:56:52.057Z,56.63
2018-12-16T22:59:22.219Z,58.83
2018-12-16T23:01:52.162Z,59.03
2018-12-16T23:04:22.208Z,66.73
2018-12-16T23:06:52.242Z,61.47
2018-12-16T23:09:22.109Z,60.27
2018-12-16T23:11:52.167Z,62.10
2018-12-16T23:14:22.133Z,62.60
2018-12-16T23:16:52.142Z,59.40
2018-12-16T23:19:22.097Z,67.60
2018-12-16T23:21:51.877Z,62.73
2018-12-16T23:24:22.617Z,62.67
2018-12-16T23:26:53.433Z,58.70
2018-12-16T23:29:23.688Z,55.43
2018-12-16T23:31:54.217Z,55.70
2018-12-16T23:34:24.247Z,54.43
2018-12-16T23:36:54.486Z,57.53
2018-12-16T23:39:24.526Z,57.00
2018-12-16T23:41:54.242Z,54.30
2018-12-16T23:44:24.137Z,55.07
2018-12-16T23:46:53.952Z,53.87
2018-12-16T23:49:23.944Z,55.00
2018-12-16T23:51:53.806Z,56.20
2018-12-16T23:54:23.845Z,54.10
2018-12-16T23:56:53.871Z,55.30
2018-12-16T23:59:23.787Z,55.43
